Time;durP1;ratioP1;P1;durP2;ratioP2;P2;SDS_P1;SDS_P2;PMS_P1;PMS_P2;Temp;Humidity;BMP_temperature;BMP_pressure;BME280_temperature;BME280_humidity;BME280_pressure;Samples;Min_cycle;Max_cycle;Signal;HPM_P1;HPM_P2
2022/02/16 00:02:09;;;;;;;2.60;1.40;;;;;;;4.23;90.00;97894.41;5115098;28;20210;-67
2022/02/16 00:04:39;;;;;;;3.97;1.40;;;;;;;4.23;89.75;97891.78;5115272;28;20218;-67
2022/02/16 00:07:06;;;;;;;2.77;1.20;;;;;;;4.16;89.93;97881.72;5114131;28;20213;-67
2022/02/16 00:09:33;;;;;;;1.93;1.10;;;;;;;4.28;88.73;97881.97;5115194;28;20241;-67
2022/02/16 00:12:00;;;;;;;2.43;1.50;;;;;;;4.20;89.50;97881.50;5115316;28;20214;-67
2022/02/16 00:14:27;;;;;;;2.13;1.30;;;;;;;4.33;90.16;97882.59;5114754;28;20241;-67
2022/02/16 00:16:54;;;;;;;1.50;1.07;;;;;;;4.43;87.96;97881.22;5113529;28;20213;-67
2022/02/16 00:19:21;;;;;;;2.60;1.10;;;;;;;4.35;88.75;97878.13;5105707;28;20229;-67
2022/02/16 00:21:48;;;;;;;3.70;1.30;;;;;;;4.31;88.56;97891.44;5102496;28;20214;-67
2022/02/16 00:24:15;;;;;;;1.50;1.23;;;;;;;4.31;89.37;97884.44;5104276;28;20210;-67
2022/02/16 00:26:41;;;;;;;1.60;1.20;;;;;;;4.30;89.38;97882.75;5101932;28;20599;-67
2022/02/16 00:29:11;;;;;;;0.80;0.80;;;;;;;4.32;89.51;97882.66;5101866;28;20328;-67
2022/02/16 00:31:37;;;;;;;2.10;1.30;;;;;;;4.36;89.72;97878.97;5103629;28;20297;-67
2022/02/16 00:34:03;;;;;;;1.87;1.43;;;;;;;4.39;89.86;97868.38;5104186;28;20234;-67
2022/02/16 00:36:30;;;;;;;1.80;1.10;;;;;;;4.43;88.81;97886.47;5106624;28;20224;-67
2022/02/16 00:38:58;;;;;;;5.43;1.60;;;;;;;4.58;88.07;97872.63;5114651;28;20589;-67
2022/02/16 00:41:24;;;;;;;2.37;1.23;;;;;;;4.64;88.29;97879.34;5110629;28;20578;-67
2022/02/16 00:43:51;;;;;;;2.00;1.40;;;;;;;4.71;87.86;97881.53;5114501;28;20287;-67
2022/02/16 00:46:17;;;;;;;3.77;1.57;;;;;;;4.71;88.27;97876.31;5114294;28;20212;-67
2022/02/16 00:48:44;;;;;;;2.83;1.30;;;;;;;4.79;88.48;97874.19;5114659;28;20217;-67
2022/02/16 00:51:11;;;;;;;2.27;1.20;;;;;;;4.84;88.22;97864.28;5114172;28;20214;-67
2022/02/16 00:53:37;;;;;;;1.73;1.00;;;;;;;4.91;88.88;97872.69;5114423;28;20240;-67
2022/02/16 00:56:05;;;;;;;3.50;1.30;;;;;;;4.95;88.21;97856.75;5114347;28;20577;-67
2022/02/16 00:58:32;;;;;;;2.83;1.10;;;;;;;4.99;87.96;97858.28;5114326;28;20214;-67
2022/02/16 01:00:58;;;;;;;2.43;1.30;;;;;;;4.97;87.05;97852.31;5114187;28;20210;-67
2022/02/16 01:03:25;;;;;;;1.67;1.00;;;;;;;5.07;87.31;97845.63;5114308;28;20577;-67
2022/02/16 01:05:51;;;;;;;2.10;1.30;;;;;;;5.04;87.83;97839.72;5113856;28;20214;-67
2022/02/16 01:08:17;;;;;;;2.80;1.20;;;;;;;5.11;87.06;97841.09;5112222;28;20210;-67
2022/02/16 01:10:44;;;;;;;2.40;1.10;;;;;;;5.18;87.30;97840.69;5114072;28;20565;-67
2022/02/16 01:13:12;;;;;;;1.17;1.07;;;;;;;5.25;87.09;97820.28;5113881;28;20214;-67
2022/02/16 01:15:38;;;;;;;3.40;1.47;;;;;;;5.20;86.66;97828.34;5113703;28;20240;-67
2022/02/16 01:18:05;;;;;;;2.80;1.20;;;;;;;5.25;86.92;97826.34;5113442;28;20217;-67
2022/02/16 01:20:31;;;;;;;2.83;1.20;;;;;;;5.27;87.16;97824.50;5113576;28;20221;-67
2022/02/16 01:22:59;;;;;;;3.67;1.30;;;;;;;5.33;86.77;97815.47;5112903;28;20221;-67
2022/02/16 01:25:25;;;;;;;4.23;1.40;;;;;;;5.34;85.89;97823.25;5113849;28;20236;-67
2022/02/16 01:27:52;;;;;;;3.03;1.50;;;;;;;5.34;85.50;97815.38;5113510;28;20663;-68
2022/02/16 01:30:19;;;;;;;1.73;0.93;;;;;;;5.46;86.05;97819.13;5113682;28;20206;-69
2022/02/16 01:32:46;;;;;;;3.17;0.97;;;;;;;5.43;86.47;97812.25;5113447;28;20210;-69
2022/02/16 01:35:12;;;;;;;2.23;1.00;;;;;;;5.50;86.72;97816.25;5111989;28;20229;-68
2022/02/16 01:37:39;;;;;;;2.73;1.10;;;;;;;5.52;86.58;97801.28;5113440;28;20684;-69
2022/02/16 01:40:07;;;;;;;1.30;1.20;;;;;;;5.56;85.87;97794.94;5113720;28;20217;-69
2022/02/16 01:42:33;;;;;;;2.83;1.20;;;;;;;5.61;85.91;97803.41;5113392;28;20213;-69
2022/02/16 01:44:59;;;;;;;2.47;1.23;;;;;;;5.63;85.36;97796.28;5113636;28;20217;-68
2022/02/16 01:47:27;;;;;;;3.00;1.03;;;;;;;5.59;86.65;97800.03;5113459;28;20222;-69
2022/02/16 01:49:54;;;;;;;2.47;1.20;;;;;;;5.64;87.05;97792.75;5113392;28;20222;-69
2022/02/16 01:52:20;;;;;;;2.57;0.90;;;;;;;5.68;86.87;97801.31;5113229;28;20608;-69
2022/02/16 01:54:47;;;;;;;1.60;0.90;;;;;;;5.72;86.39;97795.81;5113155;28;20249;-69
2022/02/16 01:57:14;;;;;;;2.07;1.40;;;;;;;5.65;87.14;97783.97;5113336;28;20220;-69
2022/02/16 01:59:40;;;;;;;1.63;0.83;;;;;;;5.76;86.99;97773.72;5100466;28;20222;-69
2022/02/16 02:02:07;;;;;;;1.63;1.00;;;;;;;5.83;86.58;97775.09;5101531;28;20216;-69
2022/02/16 02:04:35;;;;;;;1.40;0.90;;;;;;;5.83;86.66;97764.63;5098495;28;20206;-69
2022/02/16 02:07:02;;;;;;;1.50;0.97;;;;;;;5.85;86.67;97757.50;5098076;28;20240;-69
2022/02/16 02:09:29;;;;;;;3.27;0.90;;;;;;;5.88;85.63;97752.09;5098298;28;20242;-69
2022/02/16 02:11:55;;;;;;;1.87;0.87;;;;;;;5.91;86.10;97757.16;5101372;28;20218;-69
2022/02/16 02:14:22;;;;;;;1.20;0.90;;;;;;;5.91;86.49;97759.78;5108478;28;20238;-69
2022/02/16 02:16:48;;;;;;;3.40;1.00;;;;;;;5.92;85.87;97761.47;5104788;28;20210;-70
2022/02/16 02:19:15;;;;;;;1.23;0.97;;;;;;;5.93;86.45;97750.03;5112849;28;20667;-69
2022/02/16 02:21:46;;;;;;;1.33;0.80;;;;;;;5.93;86.72;97736.91;5110815;28;20264;-69
2022/02/16 02:24:13;;;;;;;2.37;0.80;;;;;;;5.92;87.67;97750.97;5113082;28;20212;-68
2022/02/16 02:26:39;;;;;;;1.97;0.97;;;;;;;5.82;88.15;97734.09;5111639;28;20425;-69
2022/02/16 02:29:06;;;;;;;1.00;0.90;;;;;;;5.89;87.82;97739.81;5113344;28;20211;-69
2022/02/16 02:31:34;;;;;;;3.53;0.90;;;;;;;5.90;87.65;97729.25;5114738;28;20209;-69
2022/02/16 02:34:02;;;;;;;1.93;0.80;;;;;;;5.95;87.32;97723.72;5116783;28;20272;-69
2022/02/16 02:36:29;;;;;;;0.93;0.70;;;;;;;5.90;87.68;97726.63;5116920;28;20221;-69
2022/02/16 02:38:57;;;;;;;1.97;0.80;;;;;;;5.95;88.17;97724.59;5116879;28;20570;-69
2022/02/16 02:41:24;;;;;;;1.80;0.70;;;;;;;5.90;87.60;97721.38;5116969;28;20685;-69
2022/02/16 02:43:52;;;;;;;1.13;0.90;;;;;;;5.92;87.78;97709.00;5116982;28;20263;-69
2022/02/16 02:46:19;;;;;;;3.37;1.10;;;;;;;5.93;86.83;97721.19;5116800;28;20210;-69
2022/02/16 02:48:46;;;;;;;2.73;1.00;;;;;;;5.95;85.86;97711.47;5117165;28;20209;-69
2022/02/16 02:51:14;;;;;;;1.50;0.70;;;;;;;5.94;87.09;97707.16;5114576;28;20215;-69
2022/02/16 02:53:41;;;;;;;2.33;0.83;;;;;;;5.97;85.93;97696.47;5115186;28;20214;-67
2022/02/16 02:56:09;;;;;;;2.03;0.87;;;;;;;5.88;86.76;97686.53;5116931;28;20230;-67
2022/02/16 02:58:36;;;;;;;0.77;0.70;;;;;;;5.91;87.42;97688.97;5116838;28;20216;-67
2022/02/16 03:01:04;;;;;;;1.53;0.90;;;;;;;5.85;87.15;97676.22;5114220;28;20210;-67
2022/02/16 03:03:30;;;;;;;2.53;0.90;;;;;;;5.89;86.87;97664.63;5116361;28;20275;-67
2022/02/16 03:05:57;;;;;;;1.70;1.00;;;;;;;5.89;87.09;97671.63;5116909;28;20210;-67
2022/02/16 03:08:24;;;;;;;1.13;0.80;;;;;;;5.85;87.69;97670.97;5116218;28;20246;-67
2022/02/16 03:10:51;;;;;;;2.27;0.80;;;;;;;5.94;87.54;97670.44;5116361;28;20225;-67
2022/02/16 03:13:21;;;;;;;2.20;0.70;;;;;;;5.92;87.35;97659.19;5116105;28;20218;-67
2022/02/16 03:15:48;;;;;;;0.83;0.70;;;;;;;5.91;87.81;97657.50;5115927;28;20239;-67
2022/02/16 03:18:15;;;;;;;0.80;0.60;;;;;;;5.90;88.76;97653.19;5114954;28;20214;-67
2022/02/16 03:20:41;;;;;;;1.27;0.83;;;;;;;5.94;88.39;97646.00;5116096;28;20218;-68
2022/02/16 03:23:08;;;;;;;0.87;0.70;;;;;;;5.96;88.09;97646.72;5116084;28;20222;-67
2022/02/16 03:25:34;;;;;;;1.73;0.90;;;;;;;5.95;87.95;97643.28;5116275;28;20222;-67
2022/02/16 03:28:01;;;;;;;1.17;0.70;;;;;;;5.96;88.29;97642.34;5115855;28;20675;-67
2022/02/16 03:30:29;;;;;;;0.70;0.70;;;;;;;5.91;89.12;97636.50;5105170;28;20218;-67
2022/02/16 03:32:55;;;;;;;1.47;0.70;;;;;;;5.88;88.36;97647.19;5116233;28;20308;-67
2022/02/16 03:35:22;;;;;;;0.70;0.70;;;;;;;5.83;89.20;97641.38;5115720;28;20234;-67
2022/02/16 03:37:48;;;;;;;1.13;0.80;;;;;;;5.87;88.94;97637.63;5116115;28;20210;-67
2022/02/16 03:40:15;;;;;;;0.93;0.70;;;;;;;5.83;89.16;97627.41;5115716;28;20221;-67
2022/02/16 03:42:41;;;;;;;2.50;1.00;;;;;;;5.80;88.68;97628.44;5102356;28;20217;-67
2022/02/16 03:45:08;;;;;;;2.47;0.80;;;;;;;5.82;88.92;97623.09;5113988;28;20213;-67
2022/02/16 03:47:36;;;;;;;2.13;0.90;;;;;;;5.84;89.04;97615.97;5115824;28;20232;-67
2022/02/16 03:50:04;;;;;;;1.73;0.80;;;;;;;5.90;88.61;97626.97;5115436;28;20225;-67
2022/02/16 03:52:30;;;;;;;1.60;0.80;;;;;;;5.90;87.85;97613.84;5115225;28;20217;-67
2022/02/16 03:54:56;;;;;;;2.60;0.97;;;;;;;5.80;87.95;97610.06;5115625;28;20622;-67
2022/02/16 03:57:24;;;;;;;1.00;0.90;;;;;;;5.74;88.01;97605.16;5115694;28;20233;-68
2022/02/16 03:59:50;;;;;;;2.10;0.80;;;;;;;5.81;88.75;97606.50;5115617;28;20629;-67
2022/02/16 04:02:17;;;;;;;0.90;0.67;;;;;;;5.85;87.90;97601.94;5115574;28;20221;-67
2022/02/16 04:04:44;;;;;;;3.70;0.90;;;;;;;5.78;88.72;97606.69;5115428;28;20217;-67
2022/02/16 04:07:11;;;;;;;1.93;0.80;;;;;;;5.82;88.31;97602.97;5115012;28;20693;-67
2022/02/16 04:09:38;;;;;;;1.93;0.73;;;;;;;5.81;87.84;97590.78;5115080;28;20234;-67
2022/02/16 04:12:05;;;;;;;0.97;0.70;;;;;;;5.79;88.36;97594.38;5113183;28;20216;-67
2022/02/16 04:14:32;;;;;;;1.80;0.67;;;;;;;5.78;88.00;97585.69;5115059;28;20237;-67
2022/02/16 04:16:59;;;;;;;1.10;0.80;;;;;;;5.82;88.23;97576.75;5115037;28;20220;-67
2022/02/16 04:19:25;;;;;;;1.93;1.33;;;;;;;5.88;87.71;97575.53;5114914;28;20225;-67
2022/02/16 04:21:53;;;;;;;0.70;0.70;;;;;;;5.93;87.59;97574.31;5114681;28;20671;-67
2022/02/16 04:24:19;;;;;;;1.40;0.93;;;;;;;5.95;86.58;97572.47;5115068;28;20561;-67
2022/02/16 04:26:46;;;;;;;0.77;0.77;;;;;;;5.91;87.34;97570.97;5114804;28;20214;-67
2022/02/16 04:29:13;;;;;;;0.97;0.63;;;;;;;5.90;87.72;97576.28;5114937;28;20250;-67
2022/02/16 04:31:39;;;;;;;1.47;0.80;;;;;;;5.89;87.86;97578.09;5114531;28;20671;-67
2022/02/16 04:34:07;;;;;;;0.97;0.87;;;;;;;5.94;86.95;97578.66;5114818;28;20210;-68
2022/02/16 04:36:33;;;;;;;0.70;0.60;;;;;;;5.97;87.73;97586.31;5114508;28;20238;-67
2022/02/16 04:39:02;;;;;;;2.37;0.70;;;;;;;5.96;88.59;97584.66;5113175;28;20297;-67
2022/02/16 04:41:29;;;;;;;1.60;0.77;;;;;;;5.99;88.29;97567.88;5114750;28;20222;-67
2022/02/16 04:43:55;;;;;;;0.80;0.80;;;;;;;5.99;86.95;97568.72;5113196;28;20220;-67
2022/02/16 04:46:22;;;;;;;3.90;1.53;;;;;;;6.02;87.93;97565.91;5107295;28;20218;-67
2022/02/16 04:48:48;;;;;;;2.83;0.80;;;;;;;5.96;87.33;97563.66;5114616;28;20245;-67
2022/02/16 04:51:15;;;;;;;1.10;0.70;;;;;;;6.01;87.31;97561.63;5114463;28;20217;-67
2022/02/16 04:53:41;;;;;;;0.60;0.60;;;;;;;6.02;87.44;97547.56;5113606;28;20694;-67
2022/02/16 04:56:09;;;;;;;1.23;0.73;;;;;;;6.02;88.48;97560.69;5113944;28;20238;-67
2022/02/16 04:58:36;;;;;;;0.70;0.60;;;;;;;6.03;88.33;97544.00;5114159;28;20238;-67
2022/02/16 05:01:03;;;;;;;0.70;0.60;;;;;;;6.03;88.13;97538.75;5113900;28;20212;-67
2022/02/16 05:03:29;;;;;;;1.40;0.87;;;;;;;6.05;88.35;97542.09;5112938;28;20218;-67
2022/02/16 05:05:56;;;;;;;1.07;0.70;;;;;;;6.03;88.40;97525.63;5114331;28;20221;-67
2022/02/16 05:08:22;;;;;;;0.60;0.60;;;;;;;6.04;87.97;97529.94;5114033;28;20233;-67
2022/02/16 05:10:49;;;;;;;0.97;0.60;;;;;;;6.04;88.53;97523.88;5113738;28;20273;-67
2022/02/16 05:13:17;;;;;;;1.93;0.70;;;;;;;6.04;88.71;97529.94;5114094;28;20216;-67
2022/02/16 05:15:44;;;;;;;0.80;0.80;;;;;;;6.09;88.25;97530.50;5113933;28;20622;-67
2022/02/16 05:18:10;;;;;;;0.77;0.63;;;;;;;6.03;88.74;97528.25;5113799;28;20210;-67
2022/02/16 05:20:37;;;;;;;0.90;0.73;;;;;;;6.04;88.77;97535.19;5113840;28;20229;-67
2022/02/16 05:23:04;;;;;;;1.80;0.70;;;;;;;5.99;89.25;97529.38;5114054;28;20213;-67
2022/02/16 05:25:30;;;;;;;0.50;0.50;;;;;;;5.97;89.79;97525.16;5113722;28;20673;-67
2022/02/16 05:27:57;;;;;;;1.83;0.80;;;;;;;5.99;89.67;97516.25;5113912;28;20224;-67
2022/02/16 05:30:25;;;;;;;0.70;0.70;;;;;;;6.09;89.35;97512.16;5111932;28;20219;-67
2022/02/16 05:32:51;;;;;;;0.70;0.70;;;;;;;6.04;89.21;97506.34;5113456;28;20217;-67
2022/02/16 05:35:18;;;;;;;1.33;0.60;;;;;;;6.02;90.09;97497.72;5113436;28;20260;-67
2022/02/16 05:37:44;;;;;;;0.50;0.50;;;;;;;6.02;89.87;97495.09;5113869;28;20206;-67
2022/02/16 05:40:12;;;;;;;1.33;0.60;;;;;;;6.00;90.46;97489.13;5113498;28;20229;-67
2022/02/16 05:42:39;;;;;;;0.60;0.60;;;;;;;5.95;90.96;97498.19;5099999;28;20213;-67
2022/02/16 05:45:06;;;;;;;0.60;0.60;;;;;;;6.05;90.78;97487.03;5113471;28;21367;-67
2022/02/16 05:47:34;;;;;;;0.90;0.80;;;;;;;6.01;90.93;97495.19;5113492;28;20709;-67
2022/02/16 05:50:00;;;;;;;1.13;0.60;;;;;;;6.01;90.83;97492.56;5113536;28;20214;-67
2022/02/16 05:52:27;;;;;;;0.60;0.60;;;;;;;6.03;90.32;97488.06;5113622;28;20237;-67
2022/02/16 05:54:53;;;;;;;0.50;0.50;;;;;;;6.01;91.26;97490.78;5113134;28;20275;-67
2022/02/16 05:57:20;;;;;;;0.73;0.60;;;;;;;5.96;91.45;97484.97;5111750;28;20210;-67
2022/02/16 05:59:46;;;;;;;1.63;0.70;;;;;;;6.00;91.38;97478.63;5106523;28;20236;-67
2022/02/16 06:02:13;;;;;;;0.60;0.60;;;;;;;5.98;92.04;97477.84;5113245;28;20586;-67
2022/02/16 06:04:41;;;;;;;1.10;0.63;;;;;;;5.95;91.90;97474.56;5114929;28;20217;-67
2022/02/16 06:07:08;;;;;;;1.27;0.60;;;;;;;5.95;92.40;97461.47;5117466;28;20209;-67
2022/02/16 06:09:34;;;;;;;0.43;0.43;;;;;;;6.04;91.75;97467.00;5117610;28;20237;-67
2022/02/16 06:12:01;;;;;;;1.03;0.80;;;;;;;5.99;92.24;97469.03;5117484;28;20206;-67
2022/02/16 06:14:27;;;;;;;0.77;0.60;;;;;;;5.95;92.89;97466.72;5117170;28;20221;-67
2022/02/16 06:16:54;;;;;;;1.33;0.70;;;;;;;6.05;92.11;97458.16;5117391;28;20247;-67
2022/02/16 06:19:20;;;;;;;1.77;0.77;;;;;;;6.02;92.64;97468.88;5117692;28;20595;-67
2022/02/16 06:21:48;;;;;;;0.70;0.60;;;;;;;6.03;92.63;97454.81;5115473;28;20213;-67
2022/02/16 06:24:14;;;;;;;0.60;0.60;;;;;;;6.07;92.83;97455.47;5117261;28;20224;-67
2022/02/16 06:26:41;;;;;;;0.80;0.60;;;;;;;6.07;92.82;97461.56;5117070;28;20706;-67
2022/02/16 06:29:08;;;;;;;0.80;0.80;;;;;;;6.11;92.65;97463.03;5117326;28;20218;-67
2022/02/16 06:31:34;;;;;;;0.70;0.70;;;;;;;6.15;91.97;97463.69;5117332;28;20269;-67
2022/02/16 06:34:01;;;;;;;0.70;0.50;;;;;;;6.14;92.99;97468.13;5117153;28;20217;-67
2022/02/16 06:36:27;;;;;;;0.67;0.60;;;;;;;6.17;92.35;97456.59;5117063;28;20234;-67
2022/02/16 06:38:55;;;;;;;0.60;0.60;;;;;;;6.18;92.87;97451.22;5117242;28;20213;-67
2022/02/16 06:41:22;;;;;;;0.60;0.60;;;;;;;6.20;92.48;97449.38;5117134;28;20216;-67
2022/02/16 06:43:48;;;;;;;0.67;0.67;;;;;;;6.19;92.94;97439.81;5116994;28;20210;-67
2022/02/16 06:46:15;;;;;;;0.80;0.60;;;;;;;6.17;93.09;97444.28;5117058;28;20210;-67
2022/02/16 06:48:42;;;;;;;0.53;0.50;;;;;;;6.21;93.60;97453.69;5115434;28;20210;-67
2022/02/16 06:51:08;;;;;;;0.60;0.60;;;;;;;6.26;93.33;97441.13;5116734;28;20594;-67
2022/02/16 06:53:35;;;;;;;0.67;0.60;;;;;;;6.34;92.25;97430.97;5116518;28;20733;-67
2022/02/16 06:56:03;;;;;;;0.57;0.57;;;;;;;6.39;92.10;97441.16;5116558;28;20244;-67
2022/02/16 06:58:29;;;;;;;0.63;0.60;;;;;;;6.39;92.18;97442.03;5116671;28;20222;-67
2022/02/16 07:00:56;;;;;;;0.60;0.60;;;;;;;6.37;92.26;97446.53;5116729;28;20229;-67
2022/02/16 07:03:22;;;;;;;0.57;0.57;;;;;;;6.40;92.96;97443.69;5116667;28;20206;-67
2022/02/16 07:05:49;;;;;;;1.27;0.60;;;;;;;6.45;93.14;97436.38;5116703;28;20237;-67
2022/02/16 07:08:15;;;;;;;1.17;0.60;;;;;;;6.45;93.54;97441.63;5116094;28;20675;-67
2022/02/16 07:10:42;;;;;;;0.93;0.50;;;;;;;6.51;93.60;97438.63;5116214;28;20228;-68
2022/02/16 07:13:10;;;;;;;0.57;0.57;;;;;;;6.44;94.34;97428.59;5116244;28;20218;-67
2022/02/16 07:15:36;;;;;;;1.60;0.60;;;;;;;6.38;95.95;97435.09;5109164;28;20245;-67
2022/02/16 07:18:03;;;;;;;1.40;0.67;;;;;;;6.39;95.73;97431.53;5116178;28;20592;-67
2022/02/16 07:20:29;;;;;;;1.67;0.77;;;;;;;6.45;96.25;97419.78;5116297;28;20214;-67
2022/02/16 07:22:56;;;;;;;0.60;0.60;;;;;;;6.43;97.04;97425.16;5116316;28;20210;-67
2022/02/16 07:25:24;;;;;;;0.70;0.70;;;;;;;6.41;98.10;97423.56;5115965;28;20682;-67
2022/02/16 07:27:51;;;;;;;1.27;0.80;;;;;;;6.39;99.07;97422.78;5116273;28;20241;-67
2022/02/16 07:30:18;;;;;;;0.77;0.50;;;;;;;6.39;99.14;97414.91;5116196;28;20206;-68
2022/02/16 07:32:45;;;;;;;0.60;0.60;;;;;;;6.35;100.00;97424.78;5116164;28;20217;-67
2022/02/16 07:35:13;;;;;;;0.60;0.60;;;;;;;6.33;100.00;97425.81;5115488;28;20219;-68
2022/02/16 07:37:40;;;;;;;0.70;0.70;;;;;;;6.24;100.00;97421.97;5115828;28;20240;-68
2022/02/16 07:40:08;;;;;;;0.80;0.60;;;;;;;6.16;100.00;97416.38;5113844;28;20207;-68
2022/02/16 07:42:35;;;;;;;0.67;0.60;;;;;;;6.18;100.00;97411.88;5113188;28;20296;-68
2022/02/16 07:45:02;;;;;;;1.30;0.70;;;;;;;6.24;100.00;97416.72;5114183;28;20222;-68
2022/02/16 07:47:31;;;;;;;0.60;0.60;;;;;;;6.26;100.00;97412.25;5114311;28;20221;-67
2022/02/16 07:49:58;;;;;;;0.87;0.60;;;;;;;6.22;100.00;97399.44;5114568;28;20241;-68
2022/02/16 07:52:24;;;;;;;1.00;0.80;;;;;;;6.19;100.00;97408.34;5113841;28;20714;-68
2022/02/16 07:54:51;;;;;;;0.90;0.60;;;;;;;6.21;100.00;97403.81;5114080;28;20217;-68
2022/02/16 07:57:17;;;;;;;1.63;1.20;;;;;;;6.20;100.00;97401.28;5113547;28;20265;-69
2022/02/16 07:59:44;;;;;;;0.70;0.70;;;;;;;6.05;100.00;97400.47;5110564;28;20222;-69
2022/02/16 08:02:10;;;;;;;1.03;0.70;;;;;;;6.08;100.00;97405.53;5112834;28;20229;-68
2022/02/16 08:04:38;;;;;;;0.50;0.50;;;;;;;6.15;100.00;97401.59;5114309;28;20210;-68
2022/02/16 08:07:05;;;;;;;0.83;0.77;;;;;;;6.17;100.00;97397.06;5112276;28;20219;-68
2022/02/16 08:09:33;;;;;;;0.93;0.83;;;;;;;6.28;100.00;97401.66;5113796;28;20261;-69
2022/02/16 08:11:59;;;;;;;0.60;0.60;;;;;;;6.35;100.00;97398.53;5113388;28;20223;-70
2022/02/16 08:14:26;;;;;;;0.70;0.70;;;;;;;6.35;100.00;97403.78;5113576;28;20667;-70
2022/02/16 08:16:55;;;;;;;0.60;0.60;;;;;;;6.35;100.00;97401.16;5113715;28;20741;-69
2022/02/16 08:19:23;;;;;;;0.83;0.73;;;;;;;6.31;100.00;97397.06;5114013;28;20225;-69
2022/02/16 08:21:53;;;;;;;0.70;0.70;;;;;;;6.38;100.00;97398.34;5113901;28;20247;-69
2022/02/16 08:24:20;;;;;;;1.37;1.07;;;;;;;6.36;100.00;97381.84;5113535;28;20254;-69
2022/02/16 08:26:46;;;;;;;0.80;0.73;;;;;;;6.37;100.00;97388.78;5112745;28;20311;-69
2022/02/16 08:29:14;;;;;;;0.60;0.60;;;;;;;6.37;100.00;97372.19;5113416;28;20246;-70
2022/02/16 08:31:41;;;;;;;0.70;0.60;;;;;;;6.32;100.00;97377.75;5113782;28;20215;-70
2022/02/16 08:34:07;;;;;;;1.63;0.60;;;;;;;6.32;100.00;97379.53;5106141;28;20214;-69
2022/02/16 08:36:34;;;;;;;0.73;0.70;;;;;;;6.27;100.00;97364.06;5097313;28;20616;-70
2022/02/16 08:39:02;;;;;;;0.80;0.70;;;;;;;6.28;100.00;97355.25;5098318;28;20215;-70
2022/02/16 08:41:28;;;;;;;0.73;0.70;;;;;;;6.24;100.00;97350.31;5099296;28;20216;-68
2022/02/16 08:43:54;;;;;;;0.70;0.60;;;;;;;6.28;100.00;97351.81;5097377;28;20695;-68
2022/02/16 08:46:21;;;;;;;1.33;0.77;;;;;;;6.33;100.00;97353.19;5097270;28;20210;-68
2022/02/16 08:48:47;;;;;;;0.73;0.63;;;;;;;6.35;100.00;97356.53;5097904;28;20211;-69
2022/02/16 08:51:14;;;;;;;1.60;0.80;;;;;;;6.33;100.00;97342.69;5099923;28;20210;-69
2022/02/16 08:53:41;;;;;;;0.77;0.73;;;;;;;6.35;100.00;97339.97;5101670;28;20218;-68
2022/02/16 08:56:09;;;;;;;0.60;0.60;;;;;;;6.35;100.00;97325.06;5113098;28;20234;-69
2022/02/16 08:58:35;;;;;;;1.00;0.70;;;;;;;6.40;100.00;97324.78;5113210;28;20699;-68
2022/02/16 09:01:01;;;;;;;0.63;0.53;;;;;;;6.40;100.00;97322.97;5111658;28;20219;-68
2022/02/16 09:03:29;;;;;;;0.83;0.60;;;;;;;6.45;100.00;97341.03;5113133;28;20213;-68
2022/02/16 09:05:56;;;;;;;1.47;0.63;;;;;;;6.46;100.00;97317.31;5112923;28;20225;-68
2022/02/16 09:08:23;;;;;;;1.23;0.80;;;;;;;6.48;100.00;97317.22;5112901;28;20226;-69
2022/02/16 09:10:49;;;;;;;0.67;0.67;;;;;;;6.52;100.00;97313.44;5112767;28;20220;-68
2022/02/16 09:13:17;;;;;;;0.73;0.60;;;;;;;6.55;100.00;97306.25;5112741;28;20218;-68
2022/02/16 09:15:44;;;;;;;2.17;0.90;;;;;;;6.47;100.00;97312.94;5112386;28;20214;-69
2022/02/16 09:18:11;;;;;;;2.53;1.47;;;;;;;6.45;100.00;97299.03;5112685;28;20238;-69
2022/02/16 09:20:38;;;;;;;1.43;0.87;;;;;;;6.48;100.00;97302.31;5110204;28;20746;-68
2022/02/16 09:23:04;;;;;;;0.97;0.73;;;;;;;6.55;100.00;97298.38;5112363;28;20680;-69
2022/02/16 09:25:31;;;;;;;0.60;0.60;;;;;;;6.66;100.00;97300.25;5112625;28;20212;-69
2022/02/16 09:27:58;;;;;;;1.17;0.93;;;;;;;6.61;100.00;97290.06;5110689;28;20212;-69
2022/02/16 09:30:26;;;;;;;1.13;0.80;;;;;;;6.68;100.00;97296.59;5112430;28;20212;-69
2022/02/16 09:32:52;;;;;;;0.80;0.60;;;;;;;6.77;100.00;97293.34;5112520;28;20220;-69
2022/02/16 09:35:19;;;;;;;0.50;0.50;;;;;;;6.80;100.00;97294.91;5112457;28;20214;-69
2022/02/16 09:37:45;;;;;;;0.67;0.60;;;;;;;6.71;100.00;97295.56;5112034;28;20246;-69
2022/02/16 09:40:12;;;;;;;1.20;0.73;;;;;;;6.83;100.00;97298.19;5106954;28;20222;-69
2022/02/16 09:42:40;;;;;;;0.67;0.63;;;;;;;6.83;100.00;97297.34;5104405;28;20214;-70
2022/02/16 09:45:09;;;;;;;0.90;0.53;;;;;;;6.85;100.00;97291.03;5105829;28;20299;-69
2022/02/16 09:47:41;;;;;;;0.67;0.67;;;;;;;6.92;100.00;97289.69;5106821;28;20648;-69
2022/02/16 09:50:08;;;;;;;0.70;0.60;;;;;;;6.90;100.00;97291.56;5102960;28;20218;-68
2022/02/16 09:52:35;;;;;;;1.53;0.70;;;;;;;6.91;100.00;97282.72;5099184;28;20207;-68
2022/02/16 09:55:02;;;;;;;0.60;0.60;;;;;;;7.00;100.00;97271.63;5108016;28;20211;-69
2022/02/16 09:57:29;;;;;;;0.80;0.50;;;;;;;7.05;100.00;97272.16;5111602;28;20332;-70
2022/02/16 09:59:55;;;;;;;0.77;0.60;;;;;;;7.13;100.00;97268.97;5112083;28;20218;-70
2022/02/16 10:02:22;;;;;;;0.60;0.60;;;;;;;7.16;100.00;97271.41;5112137;28;20213;-70
2022/02/16 10:04:56;;;;;;;0.67;0.60;;;;;;;7.26;100.00;97268.00;5112365;28;20239;-69
2022/02/16 10:07:24;;;;;;;0.80;0.60;;;;;;;7.32;100.00;97278.09;5111850;28;20208;-69
2022/02/16 10:09:51;;;;;;;0.50;0.50;;;;;;;7.43;100.00;97280.81;5112161;28;20270;-69
2022/02/16 10:12:18;;;;;;;0.80;0.60;;;;;;;7.43;100.00;97276.44;5112110;28;20698;-69
2022/02/16 10:14:45;;;;;;;0.60;0.60;;;;;;;7.59;100.00;97286.69;5109360;28;20222;-69
2022/02/16 10:17:20;;;;;;;0.50;0.50;;;;;;;7.60;100.00;97283.13;5111584;28;20240;-69
2022/02/16 10:19:48;;;;;;;0.60;0.60;;;;;;;7.64;100.00;97288.03;5112038;28;20209;-69
2022/02/16 10:22:17;;;;;;;0.60;0.60;;;;;;;7.72;100.00;97288.34;5110326;28;20214;-69
2022/02/16 10:24:45;;;;;;;0.50;0.50;;;;;;;7.66;100.00;97293.22;5111846;28;20600;-70
2022/02/16 10:27:13;;;;;;;0.60;0.60;;;;;;;7.74;100.00;97293.50;5112203;28;20473;-69
2022/02/16 10:29:41;;;;;;;0.83;0.70;;;;;;;7.70;100.00;97286.75;5111742;28;20213;-69
2022/02/16 10:32:09;;;;;;;0.57;0.50;;;;;;;7.79;100.00;97289.56;5111663;28;20242;-69
2022/02/16 10:34:52;;;;;;;0.50;0.50;;;;;;;7.89;100.00;97276.63;5110098;28;20699;-69
2022/02/16 10:37:22;;;;;;;0.90;0.67;;;;;;;7.92;100.00;97274.63;5111814;28;20239;-69
2022/02/16 10:40:06;;;;;;;0.87;0.50;;;;;;;8.04;100.00;97272.88;5111522;28;20870;-69
2022/02/16 10:42:34;;;;;;;0.40;0.40;;;;;;;8.13;100.00;97261.66;5111281;28;20296;-69
2022/02/16 10:45:06;;;;;;;1.30;0.53;;;;;;;8.24;100.00;97251.22;5111725;28;20211;-69
2022/02/16 10:47:54;;;;;;;0.87;0.40;;;;;;;8.32;100.00;97256.78;5109796;28;20686;-69
2022/02/16 10:50:22;;;;;;;0.67;0.60;;;;;;;8.37;100.00;97241.47;5111321;28;20260;-69
2022/02/16 10:52:56;;;;;;;0.50;0.50;;;;;;;8.52;100.00;97235.06;5115232;28;20216;-69
2022/02/16 10:55:37;;;;;;;0.50;0.50;;;;;;;8.65;100.00;97217.38;5110033;28;20372;-69
2022/02/16 10:58:05;;;;;;;0.90;0.53;;;;;;;8.81;99.60;97223.19;5112829;28;20240;-69
2022/02/16 11:00:33;;;;;;;0.50;0.50;;;;;;;8.97;98.87;97210.47;5115531;28;20218;-69
2022/02/16 11:03:01;;;;;;;0.50;0.50;;;;;;;9.03;98.10;97215.28;5115543;28;20216;-68
2022/02/16 11:05:28;;;;;;;0.50;0.50;;;;;;;9.20;97.21;97210.41;5115061;28;20211;-69
2022/02/16 11:07:57;;;;;;;0.40;0.40;;;;;;;9.36;96.66;97216.13;5115142;28;20207;-69
2022/02/16 11:10:25;;;;;;;0.63;0.60;;;;;;;9.43;95.60;97217.31;5115273;28;20222;-69
2022/02/16 11:12:51;;;;;;;0.40;0.40;;;;;;;9.52;95.52;97197.28;5115287;28;20236;-69
2022/02/16 11:15:18;;;;;;;0.63;0.50;;;;;;;9.59;94.96;97207.22;5113269;28;20217;-68
2022/02/16 11:17:45;;;;;;;0.60;0.50;;;;;;;9.63;95.04;97206.03;5114705;28;20708;-69
2022/02/16 11:20:23;;;;;;;0.40;0.40;;;;;;;9.69;95.69;97208.19;5115078;28;20213;-69
2022/02/16 11:22:51;;;;;;;0.60;0.50;;;;;;;9.78;96.00;97206.63;5108884;28;20213;-70
2022/02/16 11:25:30;;;;;;;0.47;0.47;;;;;;;9.83;95.84;97204.41;5114972;28;20233;-69
2022/02/16 11:27:59;;;;;;;1.70;0.50;;;;;;;9.95;94.87;97198.13;5108478;28;20220;-69
2022/02/16 11:30:31;;;;;;;0.53;0.50;;;;;;;9.96;94.43;97190.09;5114777;28;20298;-69
2022/02/16 11:33:11;;;;;;;0.87;0.50;;;;;;;10.04;94.05;97184.25;5113559;28;20842;-70
2022/02/16 11:35:46;;;;;;;0.97;0.50;;;;;;;10.07;93.58;97181.34;5113168;28;20702;-70
2022/02/16 11:38:15;;;;;;;0.50;0.50;;;;;;;10.15;94.91;97184.22;5113619;28;20240;-69
2022/02/16 11:40:45;;;;;;;0.50;0.50;;;;;;;10.28;93.83;97179.59;5112725;28;20281;-69